Time;durP1;ratioP1;P1;durP2;ratioP2;P2;SDS_P1;SDS_P2;PMS_P1;PMS_P2;Temp;Humidity;BMP_temperature;BMP_pressure;BME280_temperature;BME280_humidity;BME280_pressure;Samples;Min_cycle;Max_cycle;Signal;HPM_P1;HPM_P2
2021/03/06 00:01:08;;;;;;;5.55;3.97;;;;;;;;;;4977509;28;20192;-82
2021/03/06 00:03:34;;;;;;;5.47;3.70;;;;;;;;;;4982019;28;20292;-82
2021/03/06 00:06:00;;;;;;;4.40;4.00;;;;;;;;;;4975719;28;20222;-82
2021/03/06 00:08:26;;;;;;;4.82;3.95;;;;;;;;;;4980051;28;20274;-82
2021/03/06 00:10:52;;;;;;;7.97;4.32;;;;;;;;;;4981508;28;20200;-82
2021/03/06 00:13:18;;;;;;;7.40;4.15;;;;;;;;;;4987925;28;20202;-82
2021/03/06 00:15:45;;;;;;;6.55;5.10;;;;;;;;;;4987056;28;20188;-82
2021/03/06 00:18:11;;;;;;;5.82;4.70;;;;;;;;;;4986051;28;20172;-83
2021/03/06 00:20:37;;;;;;;5.97;4.50;;;;;;;;;;4978689;28;20230;-82
2021/03/06 00:23:03;;;;;;;5.55;4.95;;;;;;;;;;4979432;28;20184;-82
2021/03/06 00:25:29;;;;;;;7.63;5.88;;;;;;;;;;4980001;28;20338;-83
2021/03/06 00:27:55;;;;;;;5.95;5.05;;;;;;;;;;4984651;28;20650;-82
2021/03/06 00:30:22;;;;;;;7.63;4.90;;;;;;;;;;4988580;28;20194;-82
2021/03/06 00:32:48;;;;;;;10.43;5.45;;;;;;;;;;4976293;28;20286;-81
2021/03/06 00:35:14;;;;;;;6.28;4.97;;;;;;;;;;4979281;28;20188;-82
2021/03/06 00:37:40;;;;;;;6.70;5.10;;;;;;;;;;4974636;28;20184;-82
2021/03/06 00:40:07;;;;;;;6.10;5.50;;;;;;;;;;4981182;28;20258;-82
2021/03/06 00:42:33;;;;;;;6.85;5.25;;;;;;;;;;4981499;28;20221;-82
2021/03/06 00:44:59;;;;;;;8.38;5.18;;;;;;;;;;4975967;28;20204;-83
2021/03/06 00:47:25;;;;;;;7.55;5.07;;;;;;;;;;4975994;28;20224;-82
2021/03/06 00:49:51;;;;;;;7.63;5.45;;;;;;;;;;4980081;28;20189;-82
2021/03/06 00:52:17;;;;;;;8.65;5.60;;;;;;;;;;4992015;28;20184;-82
2021/03/06 00:54:43;;;;;;;8.10;5.53;;;;;;;;;;4981218;28;20183;-82
2021/03/06 00:57:09;;;;;;;8.38;5.57;;;;;;;;;;4980895;28;20550;-82
2021/03/06 00:59:35;;;;;;;7.63;5.32;;;;;;;;;;4977334;28;20196;-82
2021/03/06 01:02:01;;;;;;;7.82;5.95;;;;;;;;;;4979858;28;20220;-83
2021/03/06 01:04:27;;;;;;;8.93;7.00;;;;;;;;;;4979363;28;20205;-82
2021/03/06 01:06:53;;;;;;;8.75;6.00;;;;;;;;;;4979924;28;20183;-82
2021/03/06 01:09:19;;;;;;;6.57;5.47;;;;;;;;;;4984375;28;20188;-83
2021/03/06 01:11:45;;;;;;;10.82;6.03;;;;;;;;;;4978445;28;20319;-83
2021/03/06 01:14:11;;;;;;;9.20;5.70;;;;;;;;;;4979014;28;20219;-83
2021/03/06 01:16:37;;;;;;;10.45;6.18;;;;;;;;;;4966350;28;20180;-82
2021/03/06 01:19:03;;;;;;;6.30;5.35;;;;;;;;;;4983916;28;20188;-82
2021/03/06 01:21:29;;;;;;;7.60;6.05;;;;;;;;;;4972894;28;20535;-82
2021/03/06 01:23:55;;;;;;;9.70;7.03;;;;;;;;;;4978951;28;20449;-82
2021/03/06 01:26:21;;;;;;;8.85;7.03;;;;;;;;;;4978689;28;20185;-82
2021/03/06 01:28:47;;;;;;;8.50;6.18;;;;;;;;;;4983077;28;20260;-82
2021/03/06 01:31:13;;;;;;;6.75;5.45;;;;;;;;;;4979704;28;20677;-82
2021/03/06 01:33:39;;;;;;;7.57;6.28;;;;;;;;;;4980441;28;20207;-82
2021/03/06 01:36:05;;;;;;;7.70;5.90;;;;;;;;;;4980272;28;20168;-83
2021/03/06 01:38:31;;;;;;;12.68;7.70;;;;;;;;;;4980130;28;20187;-82
2021/03/06 01:40:57;;;;;;;10.55;6.65;;;;;;;;;;4979992;28;20188;-82
2021/03/06 01:43:23;;;;;;;10.73;7.53;;;;;;;;;;4978100;28;20204;-83
2021/03/06 01:45:49;;;;;;;8.38;6.00;;;;;;;;;;4983666;28;20200;-82
2021/03/06 01:48:15;;;;;;;6.70;6.07;;;;;;;;;;4981002;28;20224;-82
2021/03/06 01:50:45;;;;;;;7.95;5.25;;;;;;;;;;4962377;28;20203;-82
2021/03/06 01:53:12;;;;;;;7.70;6.20;;;;;;;;;;4978559;28;20260;-82
2021/03/06 01:55:39;;;;;;;9.38;6.50;;;;;;;;;;4974896;28;20194;-82
2021/03/06 01:58:06;;;;;;;9.95;6.40;;;;;;;;;;4980531;28;20243;-82
2021/03/06 02:00:32;;;;;;;8.27;6.95;;;;;;;;;;4970603;28;20183;-82
2021/03/06 02:02:59;;;;;;;11.45;7.00;;;;;;;;;;4985277;28;20210;-83
2021/03/06 02:05:25;;;;;;;12.55;7.40;;;;;;;;;;4977006;28;20177;-82
2021/03/06 02:07:51;;;;;;;9.80;7.50;;;;;;;;;;4963000;28;20204;-82
2021/03/06 02:10:19;;;;;;;8.68;6.85;;;;;;;;;;4979705;28;20184;-81
2021/03/06 02:13:03;;;;;;;10.32;6.93;;;;;;;;;;4968629;28;20176;-82
2021/03/06 02:15:48;;;;;;;9.15;6.90;;;;;;;;;;4982292;28;20503;-82
2021/03/06 02:18:18;;;;;;;7.93;6.85;;;;;;;;;;4981391;28;20206;-82
2021/03/06 02:20:47;;;;;;;8.88;6.85;;;;;;;;;;4978062;28;20194;-82
2021/03/06 02:23:15;;;;;;;10.98;7.93;;;;;;;;;;4981347;28;20248;-82
2021/03/06 02:25:56;;;;;;;8.85;7.25;;;;;;;;;;4979970;28;20179;-82
2021/03/06 02:28:31;;;;;;;8.52;7.00;;;;;;;;;;4976787;28;20188;-82
2021/03/06 02:30:57;;;;;;;14.80;6.32;;;;;;;;;;4959544;28;20223;-82
2021/03/06 02:33:27;;;;;;;8.23;7.28;;;;;;;;;;4983905;28;20175;-82
2021/03/06 02:35:54;;;;;;;9.32;7.13;;;;;;;;;;4979772;28;20188;-82
2021/03/06 02:38:23;;;;;;;9.60;7.00;;;;;;;;;;4977771;28;20188;-83
2021/03/06 02:40:49;;;;;;;12.15;8.95;;;;;;;;;;4980134;28;20276;-82
2021/03/06 02:43:15;;;;;;;9.52;6.65;;;;;;;;;;4978922;28;20220;-83
2021/03/06 02:45:42;;;;;;;13.88;6.72;;;;;;;;;;4968263;28;20255;-83
2021/03/06 02:48:08;;;;;;;8.82;7.00;;;;;;;;;;4978549;28;20225;-82
2021/03/06 02:50:34;;;;;;;9.50;7.97;;;;;;;;;;4975785;28;20724;-82
2021/03/06 02:53:00;;;;;;;8.73;6.25;;;;;;;;;;4979756;28;20187;-83
2021/03/06 02:55:26;;;;;;;11.68;8.93;;;;;;;;;;4982650;28;20179;-83
2021/03/06 02:57:55;;;;;;;10.35;7.40;;;;;;;;;;4978149;28;20223;-82
2021/03/06 03:00:24;;;;;;;8.90;7.82;;;;;;;;;;4986007;28;20184;-83
2021/03/06 03:02:56;;;;;;;11.55;7.50;;;;;;;;;;4977486;28;20204;-83
2021/03/06 03:05:34;;;;;;;7.65;6.65;;;;;;;;;;4979119;28;20192;-82
2021/03/06 03:08:18;;;;;;;9.45;7.55;;;;;;;;;;4983324;28;20741;-83
2021/03/06 03:10:47;;;;;;;9.68;7.18;;;;;;;;;;4971005;28;20191;-83
2021/03/06 03:13:20;;;;;;;8.00;6.97;;;;;;;;;;4989888;28;20188;-83
2021/03/06 03:15:48;;;;;;;11.80;7.70;;;;;;;;;;4966725;28;20250;-82
2021/03/06 03:18:19;;;;;;;10.65;7.65;;;;;;;;;;4985159;28;20206;-83
2021/03/06 03:20:48;;;;;;;8.88;7.30;;;;;;;;;;4982179;28;20191;-83
2021/03/06 03:23:19;;;;;;;10.55;6.63;;;;;;;;;;4980015;28;20209;-83
2021/03/06 03:25:46;;;;;;;10.90;6.95;;;;;;;;;;4979628;28;20204;-83
2021/03/06 03:28:12;;;;;;;10.85;7.40;;;;;;;;;;4977816;28;20192;-83
2021/03/06 03:30:39;;;;;;;8.82;7.00;;;;;;;;;;4967042;28;20180;-83
2021/03/06 03:33:08;;;;;;;11.32;7.20;;;;;;;;;;4986333;28;20183;-83
2021/03/06 03:35:34;;;;;;;11.82;7.15;;;;;;;;;;4978994;28;20184;-83
2021/03/06 03:38:01;;;;;;;10.55;7.75;;;;;;;;;;4981214;28;20323;-83
2021/03/06 03:40:27;;;;;;;7.10;6.40;;;;;;;;;;4979984;28;20191;-82
2021/03/06 03:42:53;;;;;;;12.00;7.60;;;;;;;;;;4976176;28;20727;-83
2021/03/06 03:45:21;;;;;;;7.57;6.43;;;;;;;;;;4979921;28;20498;-83
2021/03/06 03:47:47;;;;;;;8.15;6.57;;;;;;;;;;4974429;28;20238;-83
2021/03/06 03:50:16;;;;;;;10.18;6.68;;;;;;;;;;4977662;28;20673;-83
2021/03/06 03:52:44;;;;;;;7.15;6.43;;;;;;;;;;4987130;28;20766;-83
2021/03/06 03:55:10;;;;;;;9.73;7.50;;;;;;;;;;4976518;28;20189;-83
2021/03/06 03:57:36;;;;;;;8.45;7.60;;;;;;;;;;4978864;28;20247;-83
2021/03/06 04:00:12;;;;;;;8.30;7.03;;;;;;;;;;4972473;28;20639;-83
2021/03/06 04:02:39;;;;;;;7.55;6.47;;;;;;;;;;4974883;28;20193;-83
2021/03/06 04:05:05;;;;;;;8.88;7.45;;;;;;;;;;4976354;28;20211;-83
2021/03/06 04:07:47;;;;;;;9.23;7.00;;;;;;;;;;4981264;28;20265;-83
2021/03/06 04:10:15;;;;;;;9.63;7.25;;;;;;;;;;4977121;28;20546;-83
2021/03/06 04:12:42;;;;;;;10.40;7.60;;;;;;;;;;4978008;28;20179;-83
2021/03/06 04:15:08;;;;;;;7.60;6.65;;;;;;;;;;4977186;28;20271;-83
2021/03/06 04:17:35;;;;;;;8.98;6.47;;;;;;;;;;4979432;28;20190;-83
2021/03/06 04:20:01;;;;;;;9.85;7.55;;;;;;;;;;4963169;28;20218;-84
2021/03/06 04:22:27;;;;;;;9.93;6.85;;;;;;;;;;4983113;28;20223;-83
2021/03/06 04:24:53;;;;;;;7.97;6.28;;;;;;;;;;4976142;28;20199;-83
2021/03/06 04:27:19;;;;;;;7.72;6.90;;;;;;;;;;4974945;28;20208;-83
2021/03/06 04:29:45;;;;;;;7.00;6.25;;;;;;;;;;4975845;28;20259;-83
2021/03/06 04:32:11;;;;;;;9.75;5.65;;;;;;;;;;4975845;28;20208;-83
2021/03/06 04:34:37;;;;;;;11.00;7.28;;;;;;;;;;4979461;28;20188;-84
2021/03/06 04:37:03;;;;;;;10.80;7.20;;;;;;;;;;4977097;28;20275;-83
2021/03/06 04:39:29;;;;;;;9.68;7.50;;;;;;;;;;4978408;28;20176;-83
2021/03/06 04:41:55;;;;;;;9.85;7.72;;;;;;;;;;4975335;28;20263;-83
2021/03/06 04:44:21;;;;;;;10.23;6.45;;;;;;;;;;4975934;28;20208;-84
2021/03/06 04:46:47;;;;;;;10.73;7.13;;;;;;;;;;4978455;28;20184;-83
2021/03/06 04:49:13;;;;;;;10.05;7.47;;;;;;;;;;4978525;28;20184;-84
2021/03/06 04:51:39;;;;;;;9.23;7.80;;;;;;;;;;4982637;28;20208;-83
2021/03/06 04:54:05;;;;;;;10.20;7.13;;;;;;;;;;4975779;28;20322;-84
2021/03/06 04:56:31;;;;;;;9.20;7.78;;;;;;;;;;4980882;28;20199;-83
2021/03/06 04:58:57;;;;;;;9.50;6.95;;;;;;;;;;4977907;28;20239;-83
2021/03/06 05:01:23;;;;;;;9.18;6.80;;;;;;;;;;4963613;28;20210;-83
2021/03/06 05:03:49;;;;;;;12.40;7.35;;;;;;;;;;4975364;28;20208;-83
2021/03/06 05:06:15;;;;;;;11.65;6.70;;;;;;;;;;4977418;28;20183;-83
2021/03/06 05:08:41;;;;;;;11.20;6.80;;;;;;;;;;4984551;28;20275;-83
2021/03/06 05:11:07;;;;;;;8.23;7.35;;;;;;;;;;4985813;28;20184;-84
2021/03/06 05:13:33;;;;;;;8.43;6.82;;;;;;;;;;4974901;28;20187;-83
2021/03/06 05:15:59;;;;;;;7.05;6.35;;;;;;;;;;4983884;28;20482;-83
2021/03/06 05:18:25;;;;;;;9.70;6.95;;;;;;;;;;4987459;28;20465;-83
2021/03/06 05:20:51;;;;;;;8.20;6.25;;;;;;;;;;4980474;28;20375;-83
2021/03/06 05:23:17;;;;;;;8.90;6.72;;;;;;;;;;4980406;28;20436;-83
2021/03/06 05:25:43;;;;;;;12.30;7.07;;;;;;;;;;4983618;28;20226;-83
2021/03/06 05:28:09;;;;;;;9.60;7.00;;;;;;;;;;4984001;28;20180;-83
2021/03/06 05:30:36;;;;;;;11.48;7.85;;;;;;;;;;4984978;28;20637;-83
2021/03/06 05:33:02;;;;;;;7.75;6.22;;;;;;;;;;4975511;28;20168;-83
2021/03/06 05:35:28;;;;;;;7.82;7.00;;;;;;;;;;4975926;28;20215;-84
2021/03/06 05:37:53;;;;;;;9.73;7.18;;;;;;;;;;4983625;28;20188;-83
2021/03/06 05:40:20;;;;;;;6.95;5.80;;;;;;;;;;4984074;28;20194;-83
2021/03/06 05:42:46;;;;;;;10.25;6.72;;;;;;;;;;4985004;28;20196;-84
2021/03/06 05:45:12;;;;;;;8.13;6.90;;;;;;;;;;4983704;28;20212;-84
2021/03/06 05:47:38;;;;;;;8.70;6.40;;;;;;;;;;4978083;28;20313;-83
2021/03/06 05:50:05;;;;;;;8.30;6.38;;;;;;;;;;4982296;28;20187;-84
2021/03/06 05:52:31;;;;;;;9.98;6.53;;;;;;;;;;4976851;28;20184;-84
2021/03/06 05:54:59;;;;;;;9.02;6.90;;;;;;;;;;4979042;28;20279;-84
2021/03/06 05:57:25;;;;;;;7.75;6.40;;;;;;;;;;4995623;28;20183;-83
2021/03/06 05:59:51;;;;;;;10.32;7.57;;;;;;;;;;4978263;28;20218;-83
2021/03/06 06:02:17;;;;;;;8.85;5.65;;;;;;;;;;4977814;28;20196;-83
2021/03/06 06:04:45;;;;;;;10.45;6.88;;;;;;;;;;4988927;28;20203;-83
2021/03/06 06:07:11;;;;;;;9.02;7.35;;;;;;;;;;4982014;28;20254;-84
2021/03/06 06:09:37;;;;;;;9.73;6.22;;;;;;;;;;4984916;28;20191;-85
2021/03/06 06:12:05;;;;;;;8.60;6.30;;;;;;;;;;4982335;28;20184;-82
2021/03/06 06:14:31;;;;;;;9.68;7.32;;;;;;;;;;4978206;28;20188;-83
2021/03/06 06:16:57;;;;;;;8.05;6.32;;;;;;;;;;4987944;28;20211;-83
2021/03/06 06:19:24;;;;;;;8.20;6.65;;;;;;;;;;4981618;28;20191;-82
2021/03/06 06:21:50;;;;;;;8.57;6.30;;;;;;;;;;4966044;28;20243;-82
2021/03/06 06:24:17;;;;;;;8.88;6.88;;;;;;;;;;4980192;28;20203;-82
2021/03/06 06:27:03;;;;;;;7.30;6.53;;;;;;;;;;4980613;28;20191;-82
2021/03/06 06:29:37;;;;;;;8.65;6.55;;;;;;;;;;4965223;28;20183;-82
2021/03/06 06:32:04;;;;;;;10.02;6.57;;;;;;;;;;4982263;28;20191;-82
2021/03/06 06:34:30;;;;;;;10.45;6.68;;;;;;;;;;4982303;28;20188;-81
2021/03/06 06:36:56;;;;;;;8.00;6.40;;;;;;;;;;4977960;28;20191;-81
2021/03/06 06:39:29;;;;;;;8.35;6.53;;;;;;;;;;4986247;28;20188;-81
2021/03/06 06:41:57;;;;;;;14.23;7.70;;;;;;;;;;4977288;28;20331;-80
2021/03/06 06:44:24;;;;;;;8.80;6.70;;;;;;;;;;4981528;28;20235;-82
2021/03/06 06:46:50;;;;;;;8.98;6.68;;;;;;;;;;4981626;28;20207;-81
2021/03/06 06:49:17;;;;;;;11.10;6.30;;;;;;;;;;4981974;28;20262;-82
2021/03/06 06:52:02;;;;;;;8.00;5.68;;;;;;;;;;4968065;28;20631;-81
2021/03/06 06:54:28;;;;;;;7.38;5.90;;;;;;;;;;4981731;28;20194;-81
2021/03/06 06:57:07;;;;;;;10.50;6.93;;;;;;;;;;4978427;28;20600;-82
2021/03/06 06:59:34;;;;;;;8.50;7.35;;;;;;;;;;4979216;28;20183;-82
2021/03/06 07:02:04;;;;;;;16.08;7.00;;;;;;;;;;4981179;28;20188;-81
2021/03/06 07:04:42;;;;;;;9.45;6.40;;;;;;;;;;4982704;28;20203;-81
2021/03/06 07:07:09;;;;;;;7.47;5.80;;;;;;;;;;4982012;28;20184;-81
2021/03/06 07:09:35;;;;;;;9.05;6.88;;;;;;;;;;4979260;28;20195;-81
2021/03/06 07:12:15;;;;;;;9.00;7.20;;;;;;;;;;4981217;28;20637;-81
2021/03/06 07:14:42;;;;;;;12.55;6.50;;;;;;;;;;4986119;28;20214;-81
2021/03/06 07:17:08;;;;;;;9.63;6.85;;;;;;;;;;4982268;28;20247;-82
2021/03/06 07:19:40;;;;;;;10.38;7.53;;;;;;;;;;4978655;28;20228;-81
2021/03/06 07:22:06;;;;;;;8.00;6.72;;;;;;;;;;4979722;28;20187;-81
2021/03/06 07:24:32;;;;;;;8.82;6.65;;;;;;;;;;4969325;28;20199;-81
2021/03/06 07:26:58;;;;;;;9.23;7.05;;;;;;;;;;4983108;28;20180;-81
2021/03/06 07:29:24;;;;;;;7.55;6.53;;;;;;;;;;4975666;28;20187;-83
2021/03/06 07:31:51;;;;;;;10.15;6.68;;;;;;;;;;4977073;28;20200;-82
2021/03/06 07:34:19;;;;;;;11.35;6.28;;;;;;;;;;4980076;28;20191;-82
2021/03/06 07:36:46;;;;;;;8.98;6.53;;;;;;;;;;4981820;28;20199;-80
2021/03/06 07:39:13;;;;;;;8.90;6.53;;;;;;;;;;4987509;28;20215;-81
2021/03/06 07:41:40;;;;;;;11.07;7.22;;;;;;;;;;4980535;28;20192;-82
2021/03/06 07:44:12;;;;;;;6.80;6.13;;;;;;;;;;4983075;28;20409;-82
2021/03/06 07:46:38;;;;;;;12.48;7.65;;;;;;;;;;4977776;28;20184;-81
2021/03/06 07:49:10;;;;;;;9.02;6.65;;;;;;;;;;4979987;28;20192;-81
2021/03/06 07:51:37;;;;;;;6.95;6.25;;;;;;;;;;4980479;28;20182;-82
2021/03/06 07:54:04;;;;;;;7.50;6.60;;;;;;;;;;4981083;28;20187;-81
2021/03/06 07:56:31;;;;;;;8.10;6.22;;;;;;;;;;4981726;28;20214;-81
2021/03/06 07:58:57;;;;;;;8.57;6.00;;;;;;;;;;4979580;28;20187;-80
2021/03/06 08:01:27;;;;;;;10.07;6.40;;;;;;;;;;4980578;28;20191;-80
2021/03/06 08:03:53;;;;;;;7.20;6.45;;;;;;;;;;4979630;28;20582;-79
2021/03/06 08:06:19;;;;;;;7.68;6.10;;;;;;;;;;4983391;28;20195;-81
2021/03/06 08:08:45;;;;;;;7.40;6.60;;;;;;;;;;4980077;28;20183;-79
2021/03/06 08:11:13;;;;;;;7.80;5.80;;;;;;;;;;4984525;28;20489;-81
2021/03/06 08:13:45;;;;;;;10.80;5.38;;;;;;;;;;4980451;28;20190;-80
2021/03/06 08:16:23;;;;;;;6.80;6.10;;;;;;;;;;4980442;28;20184;-79
2021/03/06 08:18:56;;;;;;;7.55;5.80;;;;;;;;;;4979989;28;20196;-80
2021/03/06 08:21:33;;;;;;;7.75;6.00;;;;;;;;;;4981686;28;20187;-79
2021/03/06 08:24:21;;;;;;;7.65;5.88;;;;;;;;;;4983266;28;20221;-81
2021/03/06 08:27:03;;;;;;;7.85;6.03;;;;;;;;;;4982268;28;20176;-82
2021/03/06 08:29:29;;;;;;;7.90;5.72;;;;;;;;;;4979620;28;20188;-80
2021/03/06 08:32:03;;;;;;;8.95;7.65;;;;;;;;;;4978869;28;20183;-80
2021/03/06 08:34:32;;;;;;;12.75;8.10;;;;;;;;;;4981222;28;20176;-82
2021/03/06 08:37:16;;;;;;;6.65;6.05;;;;;;;;;;4981618;28;20222;-81
2021/03/06 08:39:52;;;;;;;8.25;7.10;;;;;;;;;;4979038;28;20230;-83
2021/03/06 08:42:18;;;;;;;6.65;5.85;;;;;;;;;;4988348;28;20218;-82
2021/03/06 08:44:45;;;;;;;11.10;7.10;;;;;;;;;;4983503;28;20211;-81
2021/03/06 08:47:11;;;;;;;9.63;6.45;;;;;;;;;;4985012;28;20219;-81
2021/03/06 08:49:38;;;;;;;7.68;5.75;;;;;;;;;;4986679;28;20176;-81
2021/03/06 08:52:04;;;;;;;7.80;5.90;;;;;;;;;;4985238;28;20212;-80
2021/03/06 08:54:40;;;;;;;6.60;5.45;;;;;;;;;;4985012;28;20187;-80
2021/03/06 08:57:06;;;;;;;7.32;6.15;;;;;;;;;;4986999;28;20187;-80
2021/03/06 08:59:39;;;;;;;9.50;5.82;;;;;;;;;;4983273;28;20228;-80
2021/03/06 09:02:14;;;;;;;9.57;5.80;;;;;;;;;;4984828;28;20274;-81
2021/03/06 09:04:41;;;;;;;6.95;6.15;;;;;;;;;;4959017;28;20204;-80
2021/03/06 09:07:25;;;;;;;9.13;5.70;;;;;;;;;;4975292;28;20680;-80
2021/03/06 09:09:51;;;;;;;5.72;5.10;;;;;;;;;;4980996;28;20211;-80
2021/03/06 09:12:17;;;;;;;8.10;6.00;;;;;;;;;;4987091;28;20176;-79
2021/03/06 09:14:43;;;;;;;5.90;5.13;;;;;;;;;;4980244;28;20434;-79
2021/03/06 09:17:10;;;;;;;6.75;5.82;;;;;;;;;;4984754;28;20556;-81
2021/03/06 09:19:36;;;;;;;5.60;5.10;;;;;;;;;;4983133;28;20191;-83
2021/03/06 09:22:03;;;;;;;7.35;6.18;;;;;;;;;;4980240;28;20253;-82
2021/03/06 09:24:50;;;;;;;5.90;5.15;;;;;;;;;;4982427;28;20204;-79
2021/03/06 09:27:17;;;;;;;6.40;5.78;;;;;;;;;;4981723;28;20308;-82
2021/03/06 09:29:43;;;;;;;8.75;6.60;;;;;;;;;;4979733;28;20191;-84
2021/03/06 09:32:09;;;;;;;9.00;5.90;;;;;;;;;;4978433;28;20236;-82
2021/03/06 09:34:36;;;;;;;6.65;5.93;;;;;;;;;;4982877;28;20194;-84
2021/03/06 09:37:13;;;;;;;5.13;4.63;;;;;;;;;;4978547;28;20187;-82
2021/03/06 09:39:39;;;;;;;8.30;5.40;;;;;;;;;;4983696;28;20218;-85
2021/03/06 09:42:05;;;;;;;11.07;4.82;;;;;;;;;;4980939;28;20181;-85
2021/03/06 09:44:31;;;;;;;5.70;4.72;;;;;;;;;;4977162;28;20226;-82
2021/03/06 09:46:59;;;;;;;5.95;4.85;;;;;;;;;;4978349;28;20188;-83
2021/03/06 09:49:33;;;;;;;7.65;4.95;;;;;;;;;;4982334;28;20184;-89
2021/03/06 09:51:59;;;;;;;7.18;4.80;;;;;;;;;;4979133;28;20188;-84
2021/03/06 09:54:25;;;;;;;4.28;3.90;;;;;;;;;;4981556;28;20511;-83
2021/03/06 09:56:52;;;;;;;5.32;4.45;;;;;;;;;;4982558;28;20180;-81
2021/03/06 09:59:19;;;;;;;6.70;5.32;;;;;;;;;;4966051;28;20184;-82
2021/03/06 10:01:45;;;;;;;6.45;4.78;;;;;;;;;;4982080;28;20203;-82
2021/03/06 10:04:12;;;;;;;6.32;5.15;;;;;;;;;;4975825;28;20200;-84
2021/03/06 10:06:40;;;;;;;5.53;4.65;;;;;;;;;;4969164;28;20205;-84
2021/03/06 10:09:07;;;;;;;4.50;3.70;;;;;;;;;;4985115;28;20199;-83
2021/03/06 10:11:35;;;;;;;5.50;4.85;;;;;;;;;;4967385;28;20184;-82
2021/03/06 10:14:01;;;;;;;6.22;4.50;;;;;;;;;;4978508;28;20272;-83
2021/03/06 10:16:28;;;;;;;6.05;5.20;;;;;;;;;;4981134;28;20192;-84
2021/03/06 10:19:00;;;;;;;5.97;4.50;;;;;;;;;;4983795;28;20196;-81
2021/03/06 10:21:26;;;;;;;4.95;4.32;;;;;;;;;;4982863;28;20660;-79
2021/03/06 10:23:52;;;;;;;5.93;4.25;;;;;;;;;;4977363;28;20251;-84
2021/03/06 10:26:22;;;;;;;6.22;4.60;;;;;;;;;;4978586;28;20235;-82
2021/03/06 10:28:50;;;;;;;4.75;4.25;;;;;;;;;;4979396;28;20180;-82
2021/03/06 10:31:25;;;;;;;5.43;4.93;;;;;;;;;;4979358;28;20180;-79
2021/03/06 10:33:51;;;;;;;5.78;4.88;;;;;;;;;;4978390;28;20180;-82
2021/03/06 10:36:17;;;;;;;4.88;4.43;;;;;;;;;;4979830;28;20219;-82
2021/03/06 10:38:44;;;;;;;5.70;4.43;;;;;;;;;;4982866;28;20187;-82
2021/03/06 10:41:17;;;;;;;4.75;4.18;;;;;;;;;;4980993;28;20245;-81
2021/03/06 10:43:44;;;;;;;8.45;4.90;;;;;;;;;;4962884;28;20207;-82
2021/03/06 10:46:14;;;;;;;4.50;4.05;;;;;;;;;;4979628;28;20260;-81
2021/03/06 10:48:41;;;;;;;4.63;3.83;;;;;;;;;;4978171;28;20250;-81
2021/03/06 10:51:07;;;;;;;4.95;4.47;;;;;;;;;;4986410;28;20190;-79
2021/03/06 10:53:34;;;;;;;5.22;4.60;;;;;;;;;;4980879;28;20496;-79
2021/03/06 10:56:01;;;;;;;7.03;4.57;;;;;;;;;;4979304;28;20273;-81
2021/03/06 10:58:50;;;;;;;4.65;3.75;;;;;;;;;;4976352;28;20187;-78
2021/03/06 11:01:16;;;;;;;4.82;3.60;;;;;;;;;;4961171;28;20277;-83
2021/03/06 11:03:46;;;;;;;4.32;3.35;;;;;;;;;;4974161;28;20199;-82
2021/03/06 11:06:12;;;;;;;3.15;2.75;;;;;;;;;;4982470;28;20455;-81
2021/03/06 11:08:39;;;;;;;5.15;2.80;;;;;;;;;;4979688;28;20184;-82
2021/03/06 11:11:05;;;;;;;3.92;3.58;;;;;;;;;;4975182;28;20836;-82
2021/03/06 11:13:45;;;;;;;3.60;3.30;;;;;;;;;;4981296;28;20557;-80
2021/03/06 11:16:11;;;;;;;3.72;3.40;;;;;;;;;;4980838;28;20195;-80
2021/03/06 11:18:39;;;;;;;4.00;3.65;;;;;;;;;;4983250;28;20231;-81
2021/03/06 11:21:08;;;;;;;6.13;3.38;;;;;;;;;;4978578;28;20191;-80
2021/03/06 11:23:34;;;;;;;5.22;2.97;;;;;;;;;;4979151;28;20200;-81
2021/03/06 11:26:00;;;;;;;5.60;3.08;;;;;;;;;;4974278;28;20757;-78
2021/03/06 11:28:26;;;;;;;4.80;3.45;;;;;;;;;;4980676;28;20176;-79
2021/03/06 11:30:52;;;;;;;3.67;3.35;;;;;;;;;;4963919;28;20203;-79
2021/03/06 11:33:19;;;;;;;4.10;3.70;;;;;;;;;;4983274;28;20180;-81
2021/03/06 11:35:46;;;;;;;4.32;3.92;;;;;;;;;;4979932;28;20541;-78
2021/03/06 11:38:13;;;;;;;5.72;3.88;;;;;;;;;;4978478;28;20391;-80
2021/03/06 11:40:43;;;;;;;3.03;2.72;;;;;;;;;;4979890;28;20207;-80
2021/03/06 11:43:10;;;;;;;6.13;4.15;;;;;;;;;;4975405;28;20266;-80
2021/03/06 11:45:36;;;;;;;6.32;3.60;;;;;;;;;;4980583;28;20187;-79
2021/03/06 11:48:02;;;;;;;5.20;3.92;;;;;;;;;;4976803;28;20239;-80
2021/03/06 11:50:30;;;;;;;6.47;4.43;;;;;;;;;;4975641;28;20194;-82
2021/03/06 11:52:57;;;;;;;3.97;3.33;;;;;;;;;;4961644;28;20188;-80
2021/03/06 11:55:23;;;;;;;4.90;4.18;;;;;;;;;;4962262;28;20692;-79
2021/03/06 11:57:49;;;;;;;4.30;3.70;;;;;;;;;;4962422;28;20585;-79
2021/03/06 12:00:16;;;;;;;4.60;4.20;;;;;;;;;;4962862;29;20222;-82
2021/03/06 12:02:43;;;;;;;5.65;4.18;;;;;;;;;;4962912;28;20251;-77
2021/03/06 12:05:10;;;;;;;4.05;3.50;;;;;;;;;;4971803;28;20224;-79
2021/03/06 12:07:36;;;;;;;3.95;3.65;;;;;;;;;;4975881;28;20177;-79
2021/03/06 12:10:02;;;;;;;4.15;3.75;;;;;;;;;;4960412;28;20212;-79
2021/03/06 12:12:28;;;;;;;7.00;4.90;;;;;;;;;;4964948;28;20182;-79
2021/03/06 12:14:54;;;;;;;4.60;4.20;;;;;;;;;;4963403;28;20187;-82
2021/03/06 12:17:20;;;;;;;5.00;4.20;;;;;;;;;;4959557;28;20451;-78
2021/03/06 12:19:46;;;;;;;4.00;3.70;;;;;;;;;;4975372;28;20456;-80
2021/03/06 12:22:12;;;;;;;5.17;4.67;;;;;;;;;;4962382;28;20184;-78
2021/03/06 12:24:38;;;;;;;5.25;4.75;;;;;;;;;;4976331;28;20464;-82
2021/03/06 12:27:04;;;;;;;4.70;4.20;;;;;;;;;;4965519;28;20217;-78
2021/03/06 12:29:30;;;;;;;4.38;4.00;;;;;;;;;;4959253;28;20452;-80
2021/03/06 12:31:56;;;;;;;4.23;3.83;;;;;;;;;;4972620;28;20197;-81
2021/03/06 12:34:22;;;;;;;4.13;3.73;;;;;;;;;;4974313;28;20463;-82
2021/03/06 12:36:48;;;;;;;4.47;4.07;;;;;;;;;;4961882;28;20455;-82
2021/03/06 12:39:14;;;;;;;3.60;3.40;;;;;;;;;;4963060;28;20176;-84
2021/03/06 12:41:40;;;;;;;3.65;3.40;;;;;;;;;;4975664;28;20180;-79
2021/03/06 12:44:07;;;;;;;5.55;4.15;;;;;;;;;;4974807;28;20208;-80
2021/03/06 12:46:33;;;;;;;5.30;3.85;;;;;;;;;;4960119;28;20262;-80
2021/03/06 12:48:59;;;;;;;4.50;4.00;;;;;;;;;;4980239;28;20283;-79
2021/03/06 12:51:25;;;;;;;4.13;3.80;;;;;;;;;;4983910;28;20183;-80
2021/03/06 12:53:51;;;;;;;4.10;3.80;;;;;;;;;;4979723;28;20458;-81
2021/03/06 12:56:17;;;;;;;4.60;4.20;;;;;;;;;;4979309;28;20188;-77
2021/03/06 12:58:43;;;;;;;6.37;5.73;;;;;;;;;;4975735;28;20442;-79
2021/03/06 13:01:10;;;;;;;4.47;4.17;;;;;;;;;;4978368;28;20460;-79
2021/03/06 13:03:36;;;;;;;4.28;3.95;;;;;;;;;;4964958;28;20509;-81
2021/03/06 13:06:02;;;;;;;4.33;3.93;;;;;;;;;;4981630;28;20171;-83
2021/03/06 13:08:28;;;;;;;5.60;5.10;;;;;;;;;;4979302;28;20434;-80
2021/03/06 13:10:54;;;;;;;6.07;5.30;;;;;;;;;;4962620;28;20184;-80
2021/03/06 13:13:20;;;;;;;4.90;4.40;;;;;;;;;;4980870;28;20459;-79
2021/03/06 13:15:46;;;;;;;16.00;5.57;;;;;;;;;;4980703;28;20184;-82
2021/03/06 13:18:12;;;;;;;5.55;4.70;;;;;;;;;;4981297;28;20184;-82
2021/03/06 13:20:39;;;;;;;4.72;4.32;;;;;;;;;;4979606;28;20203;-80
2021/03/06 13:23:05;;;;;;;6.47;5.10;;;;;;;;;;4979762;28;20222;-80
2021/03/06 13:25:32;;;;;;;4.70;4.25;;;;;;;;;;4979469;28;20211;-78
2021/03/06 13:27:58;;;;;;;4.38;4.00;;;;;;;;;;4977912;28;20187;-79
2021/03/06 13:30:24;;;;;;;4.47;4.07;;;;;;;;;;4968749;28;20186;-81
2021/03/06 13:32:50;;;;;;;4.50;4.00;;;;;;;;;;4983210;28;20462;-82
2021/03/06 13:35:16;;;;;;;4.70;3.63;;;;;;;;;;4982630;28;20187;-82
2021/03/06 13:37:42;;;;;;;3.72;3.40;;;;;;;;;;4982013;28;20194;-82
2021/03/06 13:40:10;;;;;;;4.50;4.10;;;;;;;;;;4983709;28;20209;-84
2021/03/06 13:42:36;;;;;;;5.03;4.53;;;;;;;;;;4968641;28;20175;-78
2021/03/06 13:45:03;;;;;;;4.57;3.65;;;;;;;;;;4993590;28;20226;-80
2021/03/06 13:47:29;;;;;;;4.80;4.13;;;;;;;;;;4985813;28;20216;-81
2021/03/06 13:49:55;;;;;;;3.90;3.60;;;;;;;;;;4982797;28;20661;-81
2021/03/06 13:52:20;;;;;;;4.60;4.20;;;;;;;;;;4982297;28;20439;-79
2021/03/06 13:54:46;;;;;;;4.80;4.27;;;;;;;;;;4984105;28;20184;-85
2021/03/06 13:57:12;;;;;;;4.00;3.33;;;;;;;;;;4986041;28;20612;-81
2021/03/06 13:59:38;;;;;;;3.90;3.60;;;;;;;;;;4982676;28;20435;-80
2021/03/06 14:02:05;;;;;;;4.87;4.37;;;;;;;;;;4984056;28;20454;-79
2021/03/06 14:04:31;;;;;;;5.03;4.10;;;;;;;;;;4983648;28;20477;-79
2021/03/06 14:06:57;;;;;;;3.80;3.50;;;;;;;;;;4987912;28;20203;-83
2021/03/06 14:09:23;;;;;;;5.43;4.93;;;;;;;;;;4986183;28;20414;-81
2021/03/06 14:11:49;;;;;;;5.40;4.85;;;;;;;;;;4987036;28;20180;-81
2021/03/06 14:14:15;;;;;;;4.23;3.93;;;;;;;;;;4987245;28;20202;-82
2021/03/06 14:16:41;;;;;;;4.78;4.10;;;;;;;;;;4982010;28;20451;-86
2021/03/06 14:19:07;;;;;;;4.70;4.30;;;;;;;;;;4980561;28;20193;-83
2021/03/06 14:21:33;;;;;;;6.75;4.60;;;;;;;;;;4984619;28;21007;-81
2021/03/06 14:23:59;;;;;;;3.97;3.58;;;;;;;;;;4982399;28;20267;-81
2021/03/06 14:26:26;;;;;;;4.05;3.75;;;;;;;;;;4981702;28;20255;-80
2021/03/06 14:28:52;;;;;;;4.75;3.90;;;;;;;;;;4980345;28;20179;-85
2021/03/06 14:31:18;;;;;;;4.40;4.00;;;;;;;;;;4981614;28;20278;-85
2021/03/06 14:33:44;;;;;;;4.85;4.45;;;;;;;;;;4981568;28;20188;-83
2021/03/06 14:36:10;;;;;;;5.45;3.88;;;;;;;;;;4984591;28;20172;-80
2021/03/06 14:38:36;;;;;;;4.72;3.72;;;;;;;;;;4981637;28;20188;-81
2021/03/06 14:41:02;;;;;;;5.00;4.47;;;;;;;;;;4982427;28;20203;-82
2021/03/06 14:43:30;;;;;;;4.45;3.78;;;;;;;;;;4982604;28;20443;-82